Time;durP1;ratioP1;P1;durP2;ratioP2;P2;SDS_P1;SDS_P2;PMS_P1;PMS_P2;Temp;Humidity;BMP_temperature;BMP_pressure;BME280_temperature;BME280_humidity;BME280_pressure;Samples;Min_cycle;Max_cycle;Signal;HPM_P1;HPM_P2
2021/01/18 00:02:41;;;;;;;15.57;9.13;;;;;;;-4.82;62.32;98117.47;9813279;30;20056;-78
2021/01/18 00:09:01;;;;;;;12.35;7.57;;;;;;;-4.77;62.96;98109.34;9831094;30;20060;-79
2021/01/18 00:14:33;;;;;;;12.50;8.00;;;;;;;-4.58;62.59;98106.28;9829849;30;20071;-78
2021/01/18 00:19:53;;;;;;;11.25;7.43;;;;;;;-4.44;62.52;98094.47;9828971;30;20072;-78
2021/01/18 00:25:16;;;;;;;11.70;7.43;;;;;;;-4.30;62.39;98103.75;9827615;30;20440;-79
2021/01/18 00:30:37;;;;;;;11.32;7.05;;;;;;;-4.14;62.32;98092.22;9840850;30;20064;-79
2021/01/18 00:36:09;;;;;;;12.32;7.07;;;;;;;-3.88;61.85;98101.00;9829598;30;20060;-78
2021/01/18 00:41:29;;;;;;;13.05;7.90;;;;;;;-3.69;62.24;98097.88;9839790;30;20147;-78
2021/01/18 00:46:49;;;;;;;10.50;7.47;;;;;;;-3.57;62.07;98096.66;9827514;30;20417;-79
2021/01/18 00:52:23;;;;;;;13.13;7.70;;;;;;;-3.42;61.36;98089.03;9826956;30;20067;-79
2021/01/18 00:57:54;;;;;;;11.10;7.25;;;;;;;-3.29;61.54;98078.41;9839192;30;20071;-78
2021/01/18 01:03:15;;;;;;;10.88;7.40;;;;;;;-3.15;61.55;98084.16;9826401;30;20064;-78
2021/01/18 01:08:53;;;;;;;11.93;8.35;;;;;;;-3.02;60.87;98081.69;9839271;30;20052;-79
2021/01/18 01:14:13;;;;;;;11.02;7.80;;;;;;;-3.07;61.53;98090.63;9839553;30;20076;-78
2021/01/18 01:19:44;;;;;;;12.38;8.30;;;;;;;-3.08;60.97;98086.41;9827394;30;20064;-79
2021/01/18 01:25:10;;;;;;;12.00;8.25;;;;;;;-3.01;61.32;98092.09;9825970;30;20480;-79
2021/01/18 01:30:30;;;;;;;14.35;8.55;;;;;;;-2.91;61.40;98084.41;9825581;30;20148;-78
2021/01/18 01:35:50;;;;;;;13.45;8.73;;;;;;;-2.88;61.29;98083.44;9838790;30;20131;-79
2021/01/18 01:41:25;;;;;;;14.10;8.85;;;;;;;-2.89;61.17;98068.28;9816503;30;20412;-79
2021/01/18 01:46:45;;;;;;;12.43;8.63;;;;;;;-2.83;61.08;98063.56;9838541;30;20417;-79
2021/01/18 01:52:05;;;;;;;11.68;8.55;;;;;;;-2.78;61.22;98059.34;9824620;30;20419;-79
2021/01/18 01:57:25;;;;;;;14.30;9.43;;;;;;;-2.74;61.26;98062.56;9824891;30;20140;-78
2021/01/18 02:02:45;;;;;;;13.32;8.68;;;;;;;-2.71;61.43;98059.56;9835364;30;20090;-79
2021/01/18 02:08:11;;;;;;;12.50;8.40;;;;;;;-2.66;61.14;98050.66;9824748;30;20475;-79
2021/01/18 02:13:44;;;;;;;14.00;9.25;;;;;;;-2.63;60.78;98046.91;9837381;30;20068;-79
2021/01/18 02:19:44;;;;;;;15.60;9.57;;;;;;;-2.52;60.96;98045.41;9837417;30;20087;-79
2021/01/18 02:25:35;;;;;;;16.63;10.35;;;;;;;-2.49;61.63;98044.44;9837194;30;20071;-79
2021/01/18 02:31:38;;;;;;;17.40;10.15;;;;;;;-2.42;61.40;98041.16;9823423;30;20193;-78
2021/01/18 02:37:18;;;;;;;15.90;10.07;;;;;;;-2.36;61.14;98034.44;9835807;30;20064;-79
2021/01/18 02:42:47;;;;;;;13.18;8.93;;;;;;;-2.35;61.45;98035.94;9823731;30;20075;-79
2021/01/18 02:48:07;;;;;;;15.77;9.38;;;;;;;-2.33;61.05;98038.16;9836137;30;20067;-79
2021/01/18 02:53:27;;;;;;;13.30;9.40;;;;;;;-2.28;61.03;98028.47;9823912;30;20420;-78
2021/01/18 02:58:47;;;;;;;14.63;10.10;;;;;;;-2.23;60.82;98025.72;9823586;30;20118;-79
2021/01/18 03:04:08;;;;;;;16.67;9.63;;;;;;;-2.19;61.33;98017.25;9835656;30;20529;-78
2021/01/18 03:09:34;;;;;;;17.85;10.43;;;;;;;-2.19;60.83;98028.94;9823834;30;20068;-79
2021/01/18 03:14:54;;;;;;;17.85;10.05;;;;;;;-2.22;61.60;98021.75;9840809;30;20600;-79
2021/01/18 03:20:14;;;;;;;14.57;9.20;;;;;;;-2.31;61.23;98020.03;9842903;30;20072;-79
2021/01/18 03:25:48;;;;;;;16.98;9.70;;;;;;;-2.30;61.02;98015.31;9829709;30;20397;-79
2021/01/18 03:31:08;;;;;;;17.83;10.80;;;;;;;-2.30;60.86;98015.31;9829622;30;20419;-79
2021/01/18 03:36:31;;;;;;;16.55;10.52;;;;;;;-2.38;61.28;98008.84;9841707;30;20495;-78
2021/01/18 03:41:51;;;;;;;15.73;9.90;;;;;;;-2.32;61.50;98013.06;9843463;30;20432;-79
2021/01/18 03:47:11;;;;;;;16.00;10.40;;;;;;;-2.24;61.19;98010.56;9829152;30;20411;-78
2021/01/18 03:52:30;;;;;;;15.80;10.20;;;;;;;-2.12;61.14;98008.53;9842167;30;20420;-79
2021/01/18 03:57:53;;;;;;;14.57;10.23;;;;;;;-2.09;60.96;98008.28;9828681;30;20060;-79
2021/01/18 04:03:13;;;;;;;17.15;10.98;;;;;;;-2.10;61.22;98012.25;9828353;30;20075;-79
2021/01/18 04:08:33;;;;;;;16.13;10.73;;;;;;;-2.08;60.99;98003.53;9841908;30;20151;-79
2021/01/18 04:13:53;;;;;;;14.40;10.30;;;;;;;-2.11;60.88;98004.56;9841986;30;20068;-78
2021/01/18 04:19:12;;;;;;;15.60;11.05;;;;;;;-2.07;61.61;98005.78;9828751;30;20504;-79
2021/01/18 04:24:33;;;;;;;17.10;11.27;;;;;;;-2.11;61.34;98005.31;9839765;30;20076;-78
2021/01/18 04:29:53;;;;;;;16.98;11.63;;;;;;;-2.10;61.86;97995.84;9815865;30;20144;-79
2021/01/18 04:35:13;;;;;;;16.70;10.80;;;;;;;-2.09;61.27;98000.06;9841512;30;20064;-79
2021/01/18 04:40:33;;;;;;;16.63;10.93;;;;;;;-2.05;61.63;97997.06;9827565;30;20143;-79
2021/01/18 04:45:53;;;;;;;17.45;11.38;;;;;;;-2.08;61.46;97992.59;9839829;30;20513;-78
2021/01/18 04:51:15;;;;;;;21.35;12.40;;;;;;;-2.11;62.06;97991.63;9826880;30;20128;-78
2021/01/18 04:56:43;;;;;;;18.38;11.38;;;;;;;-2.13;61.51;97988.63;9827142;30;20072;-78
2021/01/18 05:02:17;;;;;;;20.85;11.98;;;;;;;-2.08;61.70;97996.09;9907462;30;20566;-78
2021/01/18 05:07:38;;;;;;;19.90;11.82;;;;;;;-1.99;61.88;97999.78;9901194;30;20063;-77
2021/01/18 05:13:01;;;;;;;19.77;12.85;;;;;;;-1.98;61.91;98001.28;9914154;30;20150;-78
2021/01/18 05:18:21;;;;;;;20.83;12.50;;;;;;;-1.96;61.67;98004.25;9899802;30;20063;-79
2021/01/18 05:23:41;;;;;;;20.52;13.02;;;;;;;-1.91;62.09;98000.75;9887762;30;20063;-78
2021/01/18 05:29:01;;;;;;;17.67;12.25;;;;;;;-1.96;61.98;98002.25;9899453;30;20120;-79
2021/01/18 05:34:21;;;;;;;18.50;12.77;;;;;;;-1.93;62.25;97995.78;9898898;29;20065;-79
2021/01/18 05:39:41;;;;;;;19.13;12.95;;;;;;;-1.93;63.20;98003.22;9875119;30;20066;-79
2021/01/18 05:45:01;;;;;;;20.40;13.70;;;;;;;-2.00;62.74;98015.47;9899178;30;20067;-78
2021/01/18 05:50:52;;;;;;;21.52;13.43;;;;;;;-2.02;62.79;98007.75;9902659;30;20051;-78
2021/01/18 05:56:19;;;;;;;22.27;14.13;;;;;;;-2.06;63.85;98015.47;9887571;30;20059;-78
2021/01/18 06:01:46;;;;;;;19.42;13.15;;;;;;;-1.96;63.24;98023.41;9898782;30;20583;-78
2021/01/18 06:07:06;;;;;;;19.40;13.85;;;;;;;-1.96;62.97;98015.19;9898767;30;20067;-79
2021/01/18 06:12:27;;;;;;;21.30;14.50;;;;;;;-1.89;63.20;98014.66;9910539;30;20063;-78
2021/01/18 06:17:49;;;;;;;22.15;14.60;;;;;;;-1.84;63.68;98024.81;9897668;30;20063;-78
2021/01/18 06:23:09;;;;;;;21.42;13.77;;;;;;;-1.82;64.00;98025.09;9897760;30;20071;-80
2021/01/18 06:28:39;;;;;;;23.73;14.98;;;;;;;-1.74;64.09;98023.28;9911328;30;20051;-79
2021/01/18 06:33:59;;;;;;;22.98;15.32;;;;;;;-1.69;63.71;98025.28;9910483;30;20456;-78
2021/01/18 06:39:27;;;;;;;23.20;15.18;;;;;;;-1.67;64.57;98030.22;9898871;30;20055;-80
2021/01/18 06:44:47;;;;;;;21.67;15.75;;;;;;;-1.62;65.62;98037.69;9901945;30;20086;-77
2021/01/18 06:50:08;;;;;;;35.30;20.42;;;;;;;-1.63;64.11;98031.47;9896761;30;20065;-77
2021/01/18 06:55:27;;;;;;;35.08;20.92;;;;;;;-1.72;64.51;98026.28;9883975;30;20067;-77
2021/01/18 07:00:47;;;;;;;31.48;18.10;;;;;;;-1.66;65.22;98029.72;9884003;30;20059;-77
2021/01/18 07:06:33;;;;;;;29.50;18.85;;;;;;;-1.63;64.38;98030.72;9873334;30;20074;-77
2021/01/18 07:12:00;;;;;;;;;;;;;;;-1.52;65.39;98033.41;9830940;30;20512;-78
2021/01/18 07:17:20;;;;;;;27.40;18.75;;;;;;;-1.45;65.17;98036.34;9835762;30;19988;-78
2021/01/18 07:23:08;;;;;;;29.27;19.35;;;;;;;-1.35;65.09;98044.25;9835664;30;20404;-77
2021/01/18 07:28:27;;;;;;;26.20;17.70;;;;;;;-1.31;66.03;98050.22;9836184;30;20064;-79
2021/01/18 07:33:47;;;;;;;28.25;17.70;;;;;;;-1.30;65.71;98046.97;9834307;30;20099;-78
2021/01/18 07:39:26;;;;;;;28.38;18.10;;;;;;;-1.27;65.59;98054.16;9835158;30;20072;-78
2021/01/18 07:44:48;;;;;;;28.65;18.13;;;;;;;-1.22;65.52;98058.13;9835408;30;20072;-78
2021/01/18 07:50:08;;;;;;;29.83;19.25;;;;;;;-1.18;65.85;98047.63;9835067;30;20068;-78
2021/01/18 07:55:28;;;;;;;32.75;19.80;;;;;;;-1.10;66.73;98054.06;9835157;30;20060;-77
2021/01/18 08:00:49;;;;;;;27.88;19.85;;;;;;;-0.93;66.96;98064.91;9839753;30;20066;-77
2021/01/18 08:06:10;;;;;;;26.83;18.75;;;;;;;-0.81;66.27;98066.31;9841387;30;20593;-77
2021/01/18 08:11:30;;;;;;;31.63;19.80;;;;;;;-0.64;65.41;98061.44;9840421;30;20060;-77
2021/01/18 08:16:51;;;;;;;29.65;20.33;;;;;;;-0.50;66.08;98075.28;9828086;30;20091;-77
2021/01/18 08:22:11;;;;;;;29.30;19.48;;;;;;;-0.42;65.69;98081.69;9839862;30;20138;-77
2021/01/18 08:27:47;;;;;;;29.42;19.73;;;;;;;-0.41;65.41;98078.44;9841323;30;20065;-77
2021/01/18 08:33:17;;;;;;;30.73;19.75;;;;;;;-0.28;65.79;98079.84;9827766;30;20098;-77
2021/01/18 08:38:38;;;;;;;28.05;19.40;;;;;;;-0.15;65.64;98083.44;9840619;30;20063;-77
2021/01/18 08:44:03;;;;;;;28.85;19.30;;;;;;;-0.01;66.08;98082.28;9840200;30;20070;-77
2021/01/18 08:49:29;;;;;;;29.17;19.45;;;;;;;-0.01;65.81;98081.53;9839213;30;20060;-77
2021/01/18 08:54:48;;;;;;;29.55;19.65;;;;;;;0.04;65.50;98086.25;9840080;30;20420;-79
2021/01/18 09:00:10;;;;;;;24.33;18.05;;;;;;;0.08;65.79;98089.44;9841300;30;20117;-79
2021/01/18 09:05:31;;;;;;;25.55;18.58;;;;;;;0.08;66.13;98089.44;9839197;30;20071;-78
2021/01/18 09:10:59;;;;;;;25.35;17.80;;;;;;;0.18;66.12;98093.31;9846664;30;20094;-77
2021/01/18 09:16:19;;;;;;;25.77;18.42;;;;;;;0.42;65.70;98087.06;9838321;30;20135;-77
2021/01/18 09:21:38;;;;;;;25.55;17.85;;;;;;;0.50;65.74;98085.22;9839016;30;20067;-77
2021/01/18 09:26:58;;;;;;;23.20;16.92;;;;;;;0.51;66.74;98097.69;9825208;30;20389;-77
2021/01/18 09:32:18;;;;;;;25.88;17.35;;;;;;;0.55;66.28;98094.66;9825344;30;20508;-77
2021/01/18 09:37:45;;;;;;;24.55;17.92;;;;;;;0.48;66.44;98100.72;9837447;30;20471;-77
2021/01/18 09:43:07;;;;;;;27.13;17.85;;;;;;;0.65;66.47;98090.25;9837718;30;20465;-77
2021/01/18 09:48:27;;;;;;;21.58;16.00;;;;;;;1.04;66.05;98086.25;9838585;30;20060;-77
2021/01/18 09:53:56;;;;;;;24.52;17.65;;;;;;;1.28;65.75;98083.41;9837840;30;20439;-77
2021/01/18 09:59:17;;;;;;;22.17;17.25;;;;;;;1.11;65.73;98078.13;9836849;30;20408;-76
2021/01/18 10:04:37;;;;;;;23.52;16.80;;;;;;;1.07;65.22;98074.97;9836778;30;20064;-76
2021/01/18 10:09:57;;;;;;;23.30;16.90;;;;;;;1.23;65.63;98062.22;9837356;30;20491;-79
2021/01/18 10:15:26;;;;;;;24.25;18.30;;;;;;;1.50;65.46;98071.28;9837805;30;20220;-78
2021/01/18 10:20:52;;;;;;;26.00;16.58;;;;;;;1.73;65.46;98071.63;9838106;30;20141;-79
2021/01/18 10:26:42;;;;;;;22.27;16.65;;;;;;;1.92;64.85;98066.78;9864483;24;20052;-81
2021/01/18 10:38:54;;;;;;;20.27;14.60;;;;;;;2.49;64.27;98069.94;10160604;24;20084;-82
2021/01/18 10:45:07;;;;;;;19.52;14.40;;;;;;;2.39;64.07;98079.94;9954796;29;20050;-83
2021/01/18 10:51:09;;;;;;;20.33;13.98;;;;;;;2.78;64.16;98081.13;9955115;29;20059;-82
2021/01/18 10:56:37;;;;;;;17.30;13.63;;;;;;;3.23;63.46;98080.16;9950107;29;20059;-80
2021/01/18 11:08:01;;;;;;;18.85;13.52;;;;;;;3.29;63.41;98072.50;10732785;24;20150;-80
2021/01/18 11:13:23;;;;;;;15.30;11.50;;;;;;;3.73;63.72;98059.59;10085367;24;20078;-82
2021/01/18 11:18:44;;;;;;;17.52;12.30;;;;;;;4.63;63.40;98070.97;9924912;29;20059;-78
2021/01/18 11:24:04;;;;;;;18.88;13.10;;;;;;;5.34;61.66;98067.31;9931571;29;20418;-77
2021/01/18 11:29:25;;;;;;;16.75;11.57;;;;;;;5.77;58.30;98056.63;9931663;29;20062;-76
2021/01/18 11:34:44;;;;;;;17.85;12.02;;;;;;;5.79;59.20;98046.47;9935232;29;20102;-76
2021/01/18 11:40:07;;;;;;;15.18;10.80;;;;;;;5.85;60.34;98035.94;9951719;29;20127;-76
2021/01/18 11:45:27;;;;;;;14.05;9.77;;;;;;;6.22;60.19;98036.44;9938932;29;20154;-76
2021/01/18 11:50:48;;;;;;;13.35;9.93;;;;;;;7.00;57.31;98030.75;9952466;29;20067;-76
2021/01/18 11:56:08;;;;;;;14.18;8.75;;;;;;;8.05;58.01;98026.97;9938488;29;20067;-77
2021/01/18 12:01:28;;;;;;;12.57;8.38;;;;;;;8.85;57.63;98031.28;9953266;29;20067;-77
2021/01/18 12:06:48;;;;;;;12.35;6.93;;;;;;;8.88;56.36;98039.22;10713913;24;20061;-80
2021/01/18 12:12:08;;;;;;;12.75;6.38;;;;;;;8.54;55.58;98030.91;9913948;29;20058;-77
2021/01/18 12:17:41;;;;;;;14.52;7.35;;;;;;;7.98;56.82;98030.56;9924172;29;20494;-75
2021/01/18 12:23:00;;;;;;;11.63;6.47;;;;;;;7.68;57.08;98029.53;9933744;29;20090;-75
2021/01/18 12:28:20;;;;;;;13.57;6.45;;;;;;;8.18;56.75;98023.88;9933899;29;20059;-76
2021/01/18 12:33:40;;;;;;;8.23;5.38;;;;;;;8.05;52.96;98018.63;9933417;29;20506;-76
2021/01/18 12:39:10;;;;;;;9.63;4.70;;;;;;;8.10;55.90;98022.47;9948798;29;20058;-82
2021/01/18 12:44:33;;;;;;;9.88;4.57;;;;;;;8.28;54.65;98015.59;9933167;29;20066;-80
2021/01/18 12:49:57;;;;;;;9.27;3.97;;;;;;;7.43;54.17;98007.34;9897919;29;20058;-77
2021/01/18 12:55:20;;;;;;;9.95;4.68;;;;;;;6.70;54.23;98014.28;9932640;29;20094;-78
2021/01/18 13:00:40;;;;;;;9.55;4.10;;;;;;;5.94;55.17;98004.91;9935298;29;20066;-77
2021/01/18 13:06:00;;;;;;;9.55;4.53;;;;;;;5.81;55.33;98001.59;9936306;29;20074;-78
2021/01/18 13:12:12;;;;;;;8.23;4.47;;;;;;;5.88;55.88;97995.28;11065771;24;20030;31
2021/01/18 13:17:33;;;;;;;11.13;4.20;;;;;;;5.59;55.96;98003.81;9910180;30;20124;-77
2021/01/18 13:22:54;;;;;;;11.23;4.07;;;;;;;5.46;55.98;98001.97;9898763;30;20495;-77
2021/01/18 13:28:16;;;;;;;7.63;3.53;;;;;;;5.57;55.78;98011.22;9875488;30;20499;-77
2021/01/18 13:33:36;;;;;;;6.95;2.80;;;;;;;5.41;55.52;98016.75;9899333;30;20063;-77
2021/01/18 13:38:56;;;;;;;5.63;2.35;;;;;;;4.90;55.94;98008.56;9886267;30;20419;-77
2021/01/18 13:44:16;;;;;;;5.55;2.10;;;;;;;4.56;56.41;98015.13;9898991;30;20071;-77
2021/01/18 13:49:36;;;;;;;6.13;1.98;;;;;;;4.80;57.15;98022.19;9910946;30;20063;-77
2021/01/18 13:54:56;;;;;;;7.50;1.88;;;;;;;5.01;56.80;98021.31;9910542;30;20583;-77
2021/01/18 14:00:17;;;;;;;5.53;1.75;;;;;;;5.11;56.56;98022.25;9911225;30;20067;-77
2021/01/18 14:05:40;;;;;;;6.20;2.10;;;;;;;5.04;56.56;98017.47;9911433;30;20119;-77
2021/01/18 14:11:00;;;;;;;5.95;2.30;;;;;;;5.14;56.31;98016.38;9898780;30;20063;-77
2021/01/18 14:16:19;;;;;;;6.25;1.80;;;;;;;4.95;56.19;98026.31;9911253;30;20075;-76
2021/01/18 14:21:39;;;;;;;5.50;2.53;;;;;;;4.44;56.73;98027.81;9911755;30;20077;-77
2021/01/18 14:26:59;;;;;;;7.05;2.30;;;;;;;3.89;58.14;98024.56;9910198;30;20074;-77
2021/01/18 14:32:19;;;;;;;6.90;3.25;;;;;;;3.45;57.38;98032.69;9896985;30;20063;-77
2021/01/18 14:37:46;;;;;;;4.28;2.60;;;;;;;3.32;58.88;98038.28;9910385;30;20063;-76
2021/01/18 14:43:06;;;;;;;4.65;2.13;;;;;;;3.23;59.11;98033.25;9896273;30;20067;-77
2021/01/18 14:48:26;;;;;;;5.20;2.85;;;;;;;3.04;59.91;98033.44;9887798;29;20093;-77
2021/01/18 14:53:46;;;;;;;4.05;2.25;;;;;;;2.84;60.79;98034.88;9939730;29;20054;-79
2021/01/18 14:59:06;;;;;;;3.80;2.50;;;;;;;2.89;60.59;98034.00;9951966;29;20139;-77
2021/01/18 15:04:27;;;;;;;6.43;2.88;;;;;;;2.84;60.11;98030.13;9952399;29;20601;-77
2021/01/18 15:09:47;;;;;;;5.15;3.00;;;;;;;2.79;61.32;98027.47;9933245;29;20067;-77
2021/01/18 15:15:09;;;;;;;5.82;3.22;;;;;;;2.79;61.13;98030.97;9918151;29;20075;-77
2021/01/18 15:20:29;;;;;;;5.85;3.72;;;;;;;2.77;61.28;98030.03;9913907;29;20660;-78
2021/01/18 15:25:49;;;;;;;5.75;3.83;;;;;;;2.71;61.08;98027.41;9925338;29;20132;-77
2021/01/18 15:31:12;;;;;;;7.53;3.13;;;;;;;2.69;61.47;98023.69;9939116;29;20067;-78
2021/01/18 15:36:31;;;;;;;5.43;2.97;;;;;;;2.65;61.78;98028.81;9945100;29;20472;-76
2021/01/18 15:41:51;;;;;;;5.20;3.08;;;;;;;2.56;62.14;98018.97;9918665;29;20063;-77
2021/01/18 15:47:11;;;;;;;6.03;3.03;;;;;;;2.51;62.15;98020.56;9947807;29;20507;-78
2021/01/18 15:52:31;;;;;;;6.18;3.63;;;;;;;2.46;63.80;98026.94;9935181;29;20067;-79
2021/01/18 15:57:51;;;;;;;6.38;3.50;;;;;;;2.43;63.05;98017.00;9948277;29;20079;-78
2021/01/18 16:03:17;;;;;;;4.60;3.10;;;;;;;2.41;62.64;98027.78;10169840;24;20049;-79
2021/01/18 16:08:41;;;;;;;7.93;3.90;;;;;;;2.40;63.63;98012.53;9940113;29;20509;-79
2021/01/18 16:14:01;;;;;;;5.43;3.42;;;;;;;2.33;63.34;98021.47;10384546;24;20423;-79
2021/01/18 16:32:37;;;;;;;5.45;3.30;;;;;;;2.22;64.86;98005.13;10030258;29;20050;-82
2021/01/18 16:37:59;;;;;;;5.30;3.10;;;;;;;2.19;64.67;98011.72;9996564;29;20066;-80
2021/01/18 16:43:23;;;;;;;6.95;3.55;;;;;;;2.17;64.22;98014.25;9962616;29;20078;-77
2021/01/18 16:49:18;;;;;;;5.75;3.47;;;;;;;2.16;65.65;98021.78;10005887;24;20418;-81
2021/01/18 16:54:38;;;;;;;7.55;4.18;;;;;;;2.09;65.61;98021.69;9980679;29;20082;-77
2021/01/18 16:59:59;;;;;;;7.88;4.35;;;;;;;2.04;65.13;98023.28;9988270;29;20058;-81
2021/01/18 17:05:19;;;;;;;5.22;3.05;;;;;;;2.03;64.21;98021.81;9975997;29;20066;-77
2021/01/18 17:10:42;;;;;;;4.95;3.38;;;;;;;2.05;64.99;98024.75;9993829;29;20093;-80
2021/01/18 17:16:03;;;;;;;5.25;3.33;;;;;;;2.01;64.61;98014.06;9999590;29;20073;-76
2021/01/18 17:21:23;;;;;;;6.80;3.70;;;;;;;1.99;66.26;98022.09;9972873;29;20070;-75
2021/01/18 17:26:43;;;;;;;6.47;3.28;;;;;;;1.98;65.39;98019.88;9986871;29;20062;-75
2021/01/18 17:32:09;;;;;;;5.82;3.67;;;;;;;1.97;64.85;98010.16;9960594;29;20474;-82
2021/01/18 17:38:00;;;;;;;5.32;2.67;;;;;;;1.93;66.94;98004.19;9989490;29;20054;-84
2021/01/18 17:43:28;;;;;;;5.80;3.05;;;;;;;1.92;66.06;98011.72;9889628;30;20132;-77
2021/01/18 17:48:48;;;;;;;5.70;3.60;;;;;;;1.88;66.98;98011.31;9907480;29;20067;-77
2021/01/18 17:54:12;;;;;;;5.97;3.55;;;;;;;1.87;67.02;98003.59;9921483;30;20116;-76
2021/01/18 17:59:31;;;;;;;5.50;3.15;;;;;;;1.81;65.96;98009.19;9893715;30;20527;-75
2021/01/18 18:04:51;;;;;;;5.70;3.08;;;;;;;1.82;67.36;98005.16;9905185;30;20499;-76
2021/01/18 18:10:20;;;;;;;6.90;3.75;;;;;;;1.75;67.49;98000.31;9907399;29;20135;-78
2021/01/18 18:15:40;;;;;;;7.32;4.03;;;;;;;1.71;69.57;98008.13;9908868;29;20066;-78
2021/01/18 18:20:59;;;;;;;6.90;3.47;;;;;;;1.72;68.62;98015.09;9974198;29;20090;-77
2021/01/18 18:26:34;;;;;;;5.47;3.35;;;;;;;1.74;69.09;98020.84;9991309;29;20138;-77
2021/01/18 18:31:53;;;;;;;7.03;3.60;;;;;;;1.76;69.89;98023.06;9986259;29;20149;-78
2021/01/18 18:37:13;;;;;;;6.78;3.72;;;;;;;1.64;69.80;98020.53;9991025;29;20070;-76
2021/01/18 18:42:33;;;;;;;6.30;4.20;;;;;;;1.54;71.75;98015.94;10008863;29;20122;-79
2021/01/18 18:48:07;;;;;;;7.93;4.35;;;;;;;1.43;73.84;98017.63;9981673;29;20058;-82
2021/01/18 18:53:43;;;;;;;9.48;4.60;;;;;;;1.39;74.09;98022.69;9984016;29;20137;-78
2021/01/18 18:59:03;;;;;;;7.00;3.97;;;;;;;1.28;74.75;97998.13;10110708;24;20105;-79
2021/01/18 19:10:43;;;;;;;7.68;5.28;;;;;;;1.15;74.88;98007.06;10181909;24;20121;-76
2021/01/18 19:16:06;;;;;;;8.95;5.25;;;;;;;1.18;74.05;98008.06;9955870;29;20394;-77
2021/01/18 19:21:27;;;;;;;6.93;4.35;;;;;;;1.17;76.39;98019.59;9967977;29;20119;-78
2021/01/18 19:26:52;;;;;;;7.53;5.18;;;;;;;1.15;76.72;98009.81;9995738;29;20063;-80
2021/01/18 19:32:12;;;;;;;8.65;5.05;;;;;;;1.16;75.24;98018.84;9998266;29;20150;-79
2021/01/18 19:37:32;;;;;;;7.57;4.90;;;;;;;1.18;77.07;98021.81;9968453;29;20062;-77
2021/01/18 19:42:52;;;;;;;7.13;5.05;;;;;;;1.14;77.16;98013.09;9966941;29;20073;-76
2021/01/18 19:48:12;;;;;;;8.32;6.18;;;;;;;1.14;76.49;98018.59;9980680;29;20105;-76
2021/01/18 19:53:32;;;;;;;8.32;5.35;;;;;;;1.13;77.00;98017.13;9980401;29;20067;-77
2021/01/18 19:58:52;;;;;;;8.95;5.60;;;;;;;1.12;77.47;98015.63;9973312;29;20119;-78
2021/01/18 20:04:12;;;;;;;8.02;5.63;;;;;;;1.06;77.13;98001.22;9987867;29;20070;-76
2021/01/18 20:09:32;;;;;;;8.02;5.20;;;;;;;1.10;77.68;98010.66;9965277;29;669808;-76
2021/01/18 20:14:51;;;;;;;9.75;5.43;;;;;;;1.07;77.93;98013.72;9988386;29;20072;-77
2021/01/18 20:20:12;;;;;;;8.27;5.13;;;;;;;1.02;78.23;98014.56;9988417;29;20070;-76
2021/01/18 20:25:32;;;;;;;9.18;5.00;;;;;;;0.99;77.58;97993.63;9976042;29;20066;-77
2021/01/18 20:30:51;;;;;;;7.32;5.00;;;;;;;0.99;78.04;97999.13;9964029;29;20073;-76
2021/01/18 20:36:11;;;;;;;7.93;4.90;;;;;;;0.95;79.69;97991.16;9988898;29;20070;-76
2021/01/18 20:41:32;;;;;;;7.80;4.50;;;;;;;0.96;78.95;97991.91;9989889;29;20096;-76
2021/01/18 20:46:52;;;;;;;7.50;4.25;;;;;;;0.90;78.88;97994.00;9976102;29;20082;-77
2021/01/18 20:52:12;;;;;;;7.22;4.43;;;;;;;0.90;79.01;97994.00;9974993;29;20066;-77
2021/01/18 20:57:32;;;;;;;6.47;4.40;;;;;;;0.94;77.41;97989.66;9988849;29;20096;-77
2021/01/18 21:02:52;;;;;;;7.05;4.13;;;;;;;0.98;79.15;97997.63;9988912;29;20073;-76
2021/01/18 21:08:12;;;;;;;5.97;3.70;;;;;;;1.04;78.65;97984.53;9975168;29;20544;-77
2021/01/18 21:13:31;;;;;;;5.55;3.88;;;;;;;1.02;78.61;97998.78;9988084;29;20062;-77
2021/01/18 21:18:52;;;;;;;6.13;4.15;;;;;;;1.00;78.52;97993.09;9961469;29;20130;-76
2021/01/18 21:24:12;;;;;;;6.05;3.83;;;;;;;1.04;78.74;97990.03;9974129;29;20429;-76
2021/01/18 21:29:31;;;;;;;7.88;4.57;;;;;;;1.07;78.97;97986.97;9988496;29;20068;-76
2021/01/18 21:34:51;;;;;;;5.32;3.60;;;;;;;1.05;79.10;97978.50;9987398;29;20096;-76
2021/01/18 21:40:12;;;;;;;7.55;4.15;;;;;;;1.00;79.57;97979.34;9986930;29;20145;-77
2021/01/18 21:45:32;;;;;;;9.10;4.97;;;;;;;0.99;78.42;97971.63;10008159;29;20191;-77
